sensor_id;sensor_type;location;lat;lon;timestamp;P1;durP1;ratioP1;P2;durP2;ratioP2
36185;SDS011;22228;53.222;7.446;2024-01-11T00:03:10;67.03;;;37.93;;
36185;SDS011;22228;53.222;7.446;2024-01-11T00:06:31;69.33;;;38.90;;
36185;SDS011;22228;53.222;7.446;2024-01-11T00:09:52;66.80;;;37.30;;
36185;SDS011;22228;53.222;7.446;2024-01-11T00:13:12;67.87;;;38.10;;
36185;SDS011;22228;53.222;7.446;2024-01-11T00:16:33;74.30;;;40.47;;
36185;SDS011;22228;53.222;7.446;2024-01-11T00:19:53;68.13;;;38.67;;
36185;SDS011;22228;53.222;7.446;2024-01-11T00:23:15;72.50;;;39.30;;
36185;SDS011;22228;53.222;7.446;2024-01-11T00:26:35;72.00;;;38.90;;
36185;SDS011;22228;53.222;7.446;2024-01-11T00:29:56;72.23;;;39.97;;
36185;SDS011;22228;53.222;7.446;2024-01-11T00:33:16;68.30;;;39.37;;
36185;SDS011;22228;53.222;7.446;2024-01-11T00:36:37;72.23;;;40.53;;
36185;SDS011;22228;53.222;7.446;2024-01-11T00:39:59;74.70;;;40.37;;
36185;SDS011;22228;53.222;7.446;2024-01-11T00:43:19;71.43;;;40.50;;
36185;SDS011;22228;53.222;7.446;2024-01-11T00:46:39;71.80;;;39.30;;
36185;SDS011;22228;53.222;7.446;2024-01-11T00:50:00;75.00;;;39.93;;
36185;SDS011;22228;53.222;7.446;2024-01-11T00:53:21;71.40;;;39.33;;
36185;SDS011;22228;53.222;7.446;2024-01-11T00:56:43;73.17;;;40.60;;
36185;SDS011;22228;53.222;7.446;2024-01-11T01:00:03;77.30;;;42.47;;
36185;SDS011;22228;53.222;7.446;2024-01-11T01:03:25;74.33;;;40.97;;
36185;SDS011;22228;53.222;7.446;2024-01-11T01:06:45;69.20;;;39.13;;
36185;SDS011;22228;53.222;7.446;2024-01-11T01:10:06;71.43;;;40.20;;
36185;SDS011;22228;53.222;7.446;2024-01-11T01:13:28;72.93;;;39.30;;
36185;SDS011;22228;53.222;7.446;2024-01-11T04:02:08;73.13;;;37.50;;
36185;SDS011;22228;53.222;7.446;2024-01-11T04:05:29;75.77;;;39.00;;
36185;SDS011;22228;53.222;7.446;2024-01-11T04:08:49;75.13;;;37.23;;
36185;SDS011;22228;53.222;7.446;2024-01-11T04:12:10;69.43;;;37.73;;
36185;SDS011;22228;53.222;7.446;2024-01-11T04:15:31;72.67;;;37.77;;
36185;SDS011;22228;53.222;7.446;2024-01-11T04:18:52;77.63;;;41.27;;
36185;SDS011;22228;53.222;7.446;2024-01-11T04:22:13;73.77;;;38.13;;
36185;SDS011;22228;53.222;7.446;2024-01-11T04:25:33;70.07;;;38.03;;
36185;SDS011;22228;53.222;7.446;2024-01-11T04:28:55;71.80;;;38.97;;
36185;SDS011;22228;53.222;7.446;2024-01-11T04:32:16;69.43;;;36.83;;
36185;SDS011;22228;53.222;7.446;2024-01-11T04:35:38;72.97;;;39.10;;
36185;SDS011;22228;53.222;7.446;2024-01-11T04:38:59;70.83;;;37.83;;
36185;SDS011;22228;53.222;7.446;2024-01-11T04:42:19;69.63;;;36.60;;
36185;SDS011;22228;53.222;7.446;2024-01-11T04:45:39;71.00;;;38.90;;
36185;SDS011;22228;53.222;7.446;2024-01-11T04:49:00;73.70;;;38.93;;
36185;SDS011;22228;53.222;7.446;2024-01-11T04:52:22;65.13;;;37.07;;
36185;SDS011;22228;53.222;7.446;2024-01-11T04:55:42;64.43;;;35.73;;
36185;SDS011;22228;53.222;7.446;2024-01-11T04:59:03;68.80;;;36.63;;
36185;SDS011;22228;53.222;7.446;2024-01-11T05:02:23;62.00;;;34.00;;
36185;SDS011;22228;53.222;7.446;2024-01-11T05:05:44;66.50;;;34.93;;
36185;SDS011;22228;53.222;7.446;2024-01-11T05:09:05;61.40;;;34.17;;
36185;SDS011;22228;53.222;7.446;2024-01-11T05:12:26;65.17;;;35.10;;
36185;SDS011;22228;53.222;7.446;2024-01-11T05:15:46;65.20;;;34.73;;
36185;SDS011;22228;53.222;7.446;2024-01-11T05:19:07;63.87;;;34.00;;
36185;SDS011;22228;53.222;7.446;2024-01-11T05:22:27;63.43;;;33.37;;
36185;SDS011;22228;53.222;7.446;2024-01-11T05:25:49;63.87;;;33.70;;
36185;SDS011;22228;53.222;7.446;2024-01-11T05:29:09;61.37;;;34.50;;
36185;SDS011;22228;53.222;7.446;2024-01-11T05:32:30;57.50;;;32.00;;
36185;SDS011;22228;53.222;7.446;2024-01-11T05:35:50;65.63;;;35.70;;
36185;SDS011;22228;53.222;7.446;2024-01-11T05:39:12;60.57;;;33.67;;
36185;SDS011;22228;53.222;7.446;2024-01-11T05:42:33;62.57;;;33.20;;
36185;SDS011;22228;53.222;7.446;2024-01-11T05:45:54;61.07;;;33.77;;
36185;SDS011;22228;53.222;7.446;2024-01-11T05:49:14;61.47;;;33.57;;
36185;SDS011;22228;53.222;7.446;2024-01-11T05:52:35;54.43;;;32.17;;
36185;SDS011;22228;53.222;7.446;2024-01-11T05:55:55;59.37;;;33.13;;
36185;SDS011;22228;53.222;7.446;2024-01-11T05:59:17;62.10;;;35.90;;
36185;SDS011;22228;53.222;7.446;2024-01-11T06:02:37;59.83;;;34.13;;
36185;SDS011;22228;53.222;7.446;2024-01-11T06:05:58;67.67;;;37.37;;
36185;SDS011;22228;53.222;7.446;2024-01-11T06:09:18;68.53;;;35.97;;
36185;SDS011;22228;53.222;7.446;2024-01-11T06:12:39;63.97;;;34.60;;
36185;SDS011;22228;53.222;7.446;2024-01-11T06:16:01;65.37;;;36.80;;
36185;SDS011;22228;53.222;7.446;2024-01-11T06:19:22;61.40;;;35.33;;
36185;SDS011;22228;53.222;7.446;2024-01-11T06:22:42;63.13;;;35.07;;
36185;SDS011;22228;53.222;7.446;2024-01-11T06:26:03;64.13;;;35.87;;
36185;SDS011;22228;53.222;7.446;2024-01-11T06:29:23;61.27;;;33.87;;
36185;SDS011;22228;53.222;7.446;2024-01-11T06:32:45;63.53;;;35.57;;
36185;SDS011;22228;53.222;7.446;2024-01-11T06:36:06;62.90;;;35.00;;
36185;SDS011;22228;53.222;7.446;2024-01-11T06:39:26;63.70;;;34.53;;
36185;SDS011;22228;53.222;7.446;2024-01-11T06:42:47;60.23;;;34.13;;
36185;SDS011;22228;53.222;7.446;2024-01-11T06:46:08;62.50;;;34.77;;
36185;SDS011;22228;53.222;7.446;2024-01-11T06:49:30;66.97;;;35.63;;
36185;SDS011;22228;53.222;7.446;2024-01-11T06:52:51;64.57;;;34.83;;
36185;SDS011;22228;53.222;7.446;2024-01-11T06:56:14;60.70;;;33.63;;
36185;SDS011;22228;53.222;7.446;2024-01-11T06:59:35;57.90;;;32.77;;
36185;SDS011;22228;53.222;7.446;2024-01-11T07:02:56;55.60;;;30.70;;
36185;SDS011;22228;53.222;7.446;2024-01-11T07:06:17;51.70;;;28.87;;
36185;SDS011;22228;53.222;7.446;2024-01-11T07:09:38;53.63;;;29.10;;
36185;SDS011;22228;53.222;7.446;2024-01-11T07:12:58;55.80;;;31.53;;
36185;SDS011;22228;53.222;7.446;2024-01-11T07:16:19;56.63;;;30.97;;
36185;SDS011;22228;53.222;7.446;2024-01-11T07:19:39;61.20;;;37.60;;
36185;SDS011;22228;53.222;7.446;2024-01-11T07:23:01;53.63;;;29.53;;
36185;SDS011;22228;53.222;7.446;2024-01-11T07:26:22;56.77;;;32.27;;
36185;SDS011;22228;53.222;7.446;2024-01-11T07:29:42;52.73;;;29.97;;
36185;SDS011;22228;53.222;7.446;2024-01-11T07:33:03;49.67;;;31.27;;
36185;SDS011;22228;53.222;7.446;2024-01-11T07:36:24;53.07;;;31.33;;
36185;SDS011;22228;53.222;7.446;2024-01-11T07:39:45;54.40;;;30.20;;
36185;SDS011;22228;53.222;7.446;2024-01-11T07:43:06;53.63;;;30.00;;
36185;SDS011;22228;53.222;7.446;2024-01-11T07:46:27;54.37;;;31.10;;
36185;SDS011;22228;53.222;7.446;2024-01-11T07:49:47;52.23;;;29.67;;
36185;SDS011;22228;53.222;7.446;2024-01-11T07:53:08;56.43;;;31.47;;
36185;SDS011;22228;53.222;7.446;2024-01-11T07:56:29;57.17;;;31.57;;
36185;SDS011;22228;53.222;7.446;2024-01-11T07:59:50;55.90;;;31.10;;
36185;SDS011;22228;53.222;7.446;2024-01-11T08:03:10;55.83;;;31.03;;
36185;SDS011;22228;53.222;7.446;2024-01-11T08:06:30;55.27;;;30.60;;
36185;SDS011;22228;53.222;7.446;2024-01-11T08:09:51;50.17;;;28.70;;
36185;SDS011;22228;53.222;7.446;2024-01-11T08:13:13;49.47;;;29.53;;
36185;SDS011;22228;53.222;7.446;2024-01-11T08:16:33;53.40;;;29.73;;
36185;SDS011;22228;53.222;7.446;2024-01-11T08:19:54;48.67;;;30.07;;
36185;SDS011;22228;53.222;7.446;2024-01-11T08:23:15;52.30;;;29.40;;
36185;SDS011;22228;53.222;7.446;2024-01-11T08:26:36;52.97;;;30.90;;
36185;SDS011;22228;53.222;7.446;2024-01-11T08:29:57;51.43;;;31.90;;
36185;SDS011;22228;53.222;7.446;2024-01-11T08:33:18;54.50;;;31.03;;
36185;SDS011;22228;53.222;7.446;2024-01-11T08:36:39;54.10;;;30.20;;
36185;SDS011;22228;53.222;7.446;2024-01-11T08:40:00;55.47;;;31.03;;
36185;SDS011;22228;53.222;7.446;2024-01-11T08:43:20;57.27;;;31.63;;
36185;SDS011;22228;53.222;7.446;2024-01-11T08:46:42;49.60;;;29.07;;
36185;SDS011;22228;53.222;7.446;2024-01-11T08:50:02;55.03;;;30.10;;
36185;SDS011;22228;53.222;7.446;2024-01-11T08:53:24;49.63;;;29.57;;
36185;SDS011;22228;53.222;7.446;2024-01-11T08:56:45;48.93;;;28.10;;
36185;SDS011;22228;53.222;7.446;2024-01-11T09:00:05;47.57;;;27.90;;
36185;SDS011;22228;53.222;7.446;2024-01-11T09:03:27;51.10;;;29.10;;
36185;SDS011;22228;53.222;7.446;2024-01-11T09:06:48;50.97;;;28.47;;
36185;SDS011;22228;53.222;7.446;2024-01-11T09:10:09;47.13;;;29.03;;
36185;SDS011;22228;53.222;7.446;2024-01-11T09:13:29;44.93;;;28.53;;
36185;SDS011;22228;53.222;7.446;2024-01-11T09:16:50;51.97;;;29.83;;
36185;SDS011;22228;53.222;7.446;2024-01-11T09:20:11;45.03;;;27.37;;
36185;SDS011;22228;53.222;7.446;2024-01-11T09:23:34;47.90;;;28.53;;
36185;SDS011;22228;53.222;7.446;2024-01-11T09:26:55;45.73;;;27.13;;
36185;SDS011;22228;53.222;7.446;2024-01-11T09:30:15;49.27;;;29.10;;
36185;SDS011;22228;53.222;7.446;2024-01-11T09:33:36;46.70;;;29.23;;
36185;SDS011;22228;53.222;7.446;2024-01-11T09:36:58;44.03;;;27.63;;
36185;SDS011;22228;53.222;7.446;2024-01-11T09:40:18;44.43;;;27.97;;
36185;SDS011;22228;53.222;7.446;2024-01-11T09:43:39;41.13;;;26.47;;
36185;SDS011;22228;53.222;7.446;2024-01-11T09:47:01;45.03;;;27.17;;
36185;SDS011;22228;53.222;7.446;2024-01-11T09:50:23;44.97;;;28.13;;
36185;SDS011;22228;53.222;7.446;2024-01-11T09:53:45;43.60;;;25.50;;
36185;SDS011;22228;53.222;7.446;2024-01-11T09:57:10;46.67;;;26.93;;
36185;SDS011;22228;53.222;7.446;2024-01-11T10:00:30;44.07;;;26.97;;
36185;SDS011;22228;53.222;7.446;2024-01-11T10:03:52;43.37;;;26.20;;
36185;SDS011;22228;53.222;7.446;2024-01-11T10:07:13;42.20;;;26.10;;
36185;SDS011;22228;53.222;7.446;2024-01-11T10:10:38;40.50;;;25.40;;
36185;SDS011;22228;53.222;7.446;2024-01-11T10:13:59;43.07;;;26.07;;
36185;SDS011;22228;53.222;7.446;2024-01-11T10:17:20;38.23;;;25.43;;
36185;SDS011;22228;53.222;7.446;2024-01-11T10:20:40;40.23;;;25.20;;
36185;SDS011;22228;53.222;7.446;2024-01-11T10:24:00;39.13;;;24.83;;
36185;SDS011;22228;53.222;7.446;2024-01-11T10:27:26;40.07;;;25.17;;
36185;SDS011;22228;53.222;7.446;2024-01-11T10:30:47;40.17;;;25.83;;
36185;SDS011;22228;53.222;7.446;2024-01-11T10:34:07;38.30;;;24.83;;
36185;SDS011;22228;53.222;7.446;2024-01-11T10:37:28;41.87;;;26.77;;
36185;SDS011;22228;53.222;7.446;2024-01-11T10:40:49;41.60;;;25.40;;
36185;SDS011;22228;53.222;7.446;2024-01-11T10:44:14;40.23;;;25.57;;
36185;SDS011;22228;53.222;7.446;2024-01-11T10:47:38;39.07;;;24.17;;
36185;SDS011;22228;53.222;7.446;2024-01-11T10:51:01;41.37;;;25.83;;
36185;SDS011;22228;53.222;7.446;2024-01-11T10:54:27;39.30;;;23.67;;
36185;SDS011;22228;53.222;7.446;2024-01-11T10:57:49;40.93;;;25.10;;
36185;SDS011;22228;53.222;7.446;2024-01-11T11:01:12;35.50;;;24.03;;
36185;SDS011;22228;53.222;7.446;2024-01-11T11:04:33;38.37;;;24.20;;
36185;SDS011;22228;53.222;7.446;2024-01-11T11:07:57;38.70;;;24.90;;
36185;SDS011;22228;53.222;7.446;2024-01-11T11:11:20;39.60;;;24.80;;
36185;SDS011;22228;53.222;7.446;2024-01-11T11:14:41;36.77;;;23.67;;
36185;SDS011;22228;53.222;7.446;2024-01-11T11:18:05;35.83;;;23.40;;
36185;SDS011;22228;53.222;7.446;2024-01-11T11:21:26;34.20;;;22.20;;
36185;SDS011;22228;53.222;7.446;2024-01-11T11:24:46;36.33;;;22.90;;
36185;SDS011;22228;53.222;7.446;2024-01-11T11:28:07;34.43;;;22.57;;
36185;SDS011;22228;53.222;7.446;2024-01-11T11:31:37;34.47;;;21.87;;
36185;SDS011;22228;53.222;7.446;2024-01-11T11:34:59;35.77;;;22.83;;
36185;SDS011;22228;53.222;7.446;2024-01-11T11:38:21;36.23;;;22.63;;
36185;SDS011;22228;53.222;7.446;2024-01-11T11:41:41;35.67;;;22.70;;
36185;SDS011;22228;53.222;7.446;2024-01-11T11:45:02;32.73;;;21.97;;
36185;SDS011;22228;53.222;7.446;2024-01-11T11:48:47;36.37;;;22.10;;
36185;SDS011;22228;53.222;7.446;2024-01-11T11:52:15;34.17;;;21.73;;
36185;SDS011;22228;53.222;7.446;2024-01-11T11:55:36;34.20;;;21.63;;
36185;SDS011;22228;53.222;7.446;2024-01-11T11:58:56;32.57;;;20.97;;
36185;SDS011;22228;53.222;7.446;2024-01-11T12:02:18;33.57;;;21.83;;
36185;SDS011;22228;53.222;7.446;2024-01-11T12:05:40;33.07;;;20.87;;
36185;SDS011;22228;53.222;7.446;2024-01-11T12:09:03;32.30;;;20.07;;
36185;SDS011;22228;53.222;7.446;2024-01-11T12:12:23;30.37;;;20.20;;
36185;SDS011;22228;53.222;7.446;2024-01-11T12:15:44;29.97;;;20.63;;
36185;SDS011;22228;53.222;7.446;2024-01-11T12:19:06;32.83;;;21.27;;
36185;SDS011;22228;53.222;7.446;2024-01-11T12:22:30;32.83;;;21.40;;
36185;SDS011;22228;53.222;7.446;2024-01-11T12:25:52;36.23;;;20.77;;
36185;SDS011;22228;53.222;7.446;2024-01-11T12:29:13;30.50;;;20.63;;
36185;SDS011;22228;53.222;7.446;2024-01-11T12:32:33;35.63;;;21.03;;
36185;SDS011;22228;53.222;7.446;2024-01-11T12:35:55;32.13;;;20.57;;
36185;SDS011;22228;53.222;7.446;2024-01-11T12:39:16;31.27;;;20.30;;
36185;SDS011;22228;53.222;7.446;2024-01-11T12:42:38;31.83;;;21.27;;
36185;SDS011;22228;53.222;7.446;2024-01-11T12:45:58;33.43;;;21.23;;
36185;SDS011;22228;53.222;7.446;2024-01-11T12:49:19;37.27;;;23.43;;
36185;SDS011;22228;53.222;7.446;2024-01-11T12:52:41;33.53;;;20.83;;
36185;SDS011;22228;53.222;7.446;2024-01-11T12:56:02;33.17;;;20.70;;
36185;SDS011;22228;53.222;7.446;2024-01-11T13:03:08;30.77;;;20.23;;
36185;SDS011;22228;53.222;7.446;2024-01-11T13:06:30;33.57;;;22.10;;
36185;SDS011;22228;53.222;7.446;2024-01-11T13:09:51;33.83;;;22.63;;
36185;SDS011;22228;53.222;7.446;2024-01-11T13:13:11;33.80;;;22.23;;
36185;SDS011;22228;53.222;7.446;2024-01-11T13:16:34;35.30;;;21.90;;
36185;SDS011;22228;53.222;7.446;2024-01-11T13:19:55;35.70;;;22.47;;
36185;SDS011;22228;53.222;7.446;2024-01-11T13:23:18;33.50;;;21.73;;
36185;SDS011;22228;53.222;7.446;2024-01-11T13:26:39;32.10;;;21.50;;
36185;SDS011;22228;53.222;7.446;2024-01-11T13:30:00;33.20;;;21.47;;
36185;SDS011;22228;53.222;7.446;2024-01-11T13:33:22;34.40;;;21.60;;
36185;SDS011;22228;53.222;7.446;2024-01-11T13:36:42;39.00;;;22.37;;
36185;SDS011;22228;53.222;7.446;2024-01-11T13:40:03;33.63;;;21.00;;
36185;SDS011;22228;53.222;7.446;2024-01-11T13:43:24;36.67;;;22.57;;
36185;SDS011;22228;53.222;7.446;2024-01-11T13:46:44;33.77;;;22.23;;
36185;SDS011;22228;53.222;7.446;2024-01-11T13:50:07;35.83;;;22.87;;
36185;SDS011;22228;53.222;7.446;2024-01-11T13:53:27;38.33;;;24.23;;
36185;SDS011;22228;53.222;7.446;2024-01-11T13:56:49;38.17;;;24.03;;
36185;SDS011;22228;53.222;7.446;2024-01-11T14:00:10;35.87;;;23.23;;
36185;SDS011;22228;53.222;7.446;2024-01-11T14:03:31;35.70;;;23.43;;
36185;SDS011;22228;53.222;7.446;2024-01-11T14:06:53;40.23;;;24.97;;
36185;SDS011;22228;53.222;7.446;2024-01-11T14:10:14;38.20;;;25.20;;
36185;SDS011;22228;53.222;7.446;2024-01-11T14:13:35;38.20;;;25.93;;
36185;SDS011;22228;53.222;7.446;2024-01-11T14:16:56;40.47;;;26.03;;
36185;SDS011;22228;53.222;7.446;2024-01-11T14:20:16;40.53;;;26.80;;
36185;SDS011;22228;53.222;7.446;2024-01-11T14:23:38;40.37;;;23.87;;
36185;SDS011;22228;53.222;7.446;2024-01-11T14:26:59;37.70;;;23.80;;
36185;SDS011;22228;53.222;7.446;2024-01-11T14:30:20;37.80;;;24.30;;
36185;SDS011;22228;53.222;7.446;2024-01-11T14:33:41;36.73;;;24.13;;
36185;SDS011;22228;53.222;7.446;2024-01-11T14:37:01;37.80;;;25.03;;
36185;SDS011;22228;53.222;7.446;2024-01-11T14:40:23;41.63;;;26.00;;
36185;SDS011;22228;53.222;7.446;2024-01-11T14:43:44;39.07;;;25.10;;
36185;SDS011;22228;53.222;7.446;2024-01-11T14:47:04;42.77;;;25.03;;
36185;SDS011;22228;53.222;7.446;2024-01-11T14:50:28;41.67;;;25.30;;
36185;SDS011;22228;53.222;7.446;2024-01-11T14:53:48;46.37;;;26.87;;
36185;SDS011;22228;53.222;7.446;2024-01-11T14:57:11;41.37;;;26.53;;
36185;SDS011;22228;53.222;7.446;2024-01-11T15:00:32;44.90;;;27.20;;
36185;SDS011;22228;53.222;7.446;2024-01-11T15:03:52;46.17;;;27.50;;
36185;SDS011;22228;53.222;7.446;2024-01-11T15:07:13;44.23;;;27.43;;
36185;SDS011;22228;53.222;7.446;2024-01-11T15:10:33;45.70;;;28.13;;
36185;SDS011;22228;53.222;7.446;2024-01-11T15:13:55;44.73;;;28.83;;
36185;SDS011;22228;53.222;7.446;2024-01-11T15:17:15;47.90;;;30.23;;
36185;SDS011;22228;53.222;7.446;2024-01-11T15:20:36;48.43;;;31.07;;
36185;SDS011;22228;53.222;7.446;2024-01-11T15:23:57;45.90;;;29.10;;
36185;SDS011;22228;53.222;7.446;2024-01-11T15:27:18;56.50;;;34.67;;
36185;SDS011;22228;53.222;7.446;2024-01-11T15:30:41;58.73;;;35.17;;
36185;SDS011;22228;53.222;7.446;2024-01-11T15:34:01;55.37;;;34.80;;
36185;SDS011;22228;53.222;7.446;2024-01-11T15:37:22;62.90;;;39.40;;
36185;SDS011;22228;53.222;7.446;2024-01-11T15:40:44;65.63;;;38.30;;
36185;SDS011;22228;53.222;7.446;2024-01-11T15:44:05;54.17;;;36.77;;
36185;SDS011;22228;53.222;7.446;2024-01-11T15:47:26;55.57;;;37.87;;
36185;SDS011;22228;53.222;7.446;2024-01-11T15:50:48;60.57;;;37.57;;
36185;SDS011;22228;53.222;7.446;2024-01-11T15:54:08;66.80;;;40.47;;
36185;SDS011;22228;53.222;7.446;2024-01-11T15:57:29;62.07;;;40.73;;
36185;SDS011;22228;53.222;7.446;2024-01-11T16:00:50;65.83;;;39.00;;
36185;SDS011;22228;53.222;7.446;2024-01-11T16:04:11;61.47;;;39.43;;
36185;SDS011;22228;53.222;7.446;2024-01-11T16:07:32;62.10;;;39.40;;
36185;SDS011;22228;53.222;7.446;2024-01-11T16:10:52;68.07;;;40.63;;
36185;SDS011;22228;53.222;7.446;2024-01-11T16:14:13;71.25;;;49.50;;
36185;SDS011;22228;53.222;7.446;2024-01-11T16:17:33;66.83;;;41.13;;
36185;SDS011;22228;53.222;7.446;2024-01-11T16:20:55;63.37;;;40.40;;
36185;SDS011;22228;53.222;7.446;2024-01-11T16:24:16;62.20;;;38.17;;
36185;SDS011;22228;53.222;7.446;2024-01-11T16:27:37;58.97;;;36.63;;
36185;SDS011;22228;53.222;7.446;2024-01-11T16:30:57;57.30;;;35.77;;
36185;SDS011;22228;53.222;7.446;2024-01-11T16:34:17;58.10;;;36.27;;
36185;SDS011;22228;53.222;7.446;2024-01-11T16:37:39;57.47;;;34.93;;
36185;SDS011;22228;53.222;7.446;2024-01-11T16:40:59;55.77;;;35.67;;
36185;SDS011;22228;53.222;7.446;2024-01-11T16:44:20;56.23;;;32.90;;
36185;SDS011;22228;53.222;7.446;2024-01-11T16:47:41;53.90;;;33.10;;
36185;SDS011;22228;53.222;7.446;2024-01-11T16:51:02;47.17;;;30.70;;
36185;SDS011;22228;53.222;7.446;2024-01-11T16:54:24;53.50;;;31.43;;
36185;SDS011;22228;53.222;7.446;2024-01-11T16:57:45;59.00;;;34.10;;
36185;SDS011;22228;53.222;7.446;2024-01-11T17:01:05;55.70;;;35.17;;
36185;SDS011;22228;53.222;7.446;2024-01-11T17:04:26;63.83;;;35.27;;
36185;SDS011;22228;53.222;7.446;2024-01-11T17:07:47;52.90;;;33.40;;
36185;SDS011;22228;53.222;7.446;2024-01-11T17:11:09;54.30;;;33.20;;
36185;SDS011;22228;53.222;7.446;2024-01-11T17:14:29;54.80;;;33.33;;
36185;SDS011;22228;53.222;7.446;2024-01-11T17:17:50;54.33;;;33.23;;
36185;SDS011;22228;53.222;7.446;2024-01-11T17:21:10;52.63;;;32.37;;
36185;SDS011;22228;53.222;7.446;2024-01-11T17:24:31;51.40;;;33.07;;
36185;SDS011;22228;53.222;7.446;2024-01-11T17:27:53;52.10;;;30.90;;
36185;SDS011;22228;53.222;7.446;2024-01-11T17:31:13;52.10;;;32.97;;
36185;SDS011;22228;53.222;7.446;2024-01-11T17:34:34;54.90;;;32.50;;
36185;SDS011;22228;53.222;7.446;2024-01-11T17:37:55;58.80;;;33.30;;
36185;SDS011;22228;53.222;7.446;2024-01-11T17:41:15;54.17;;;33.90;;
36185;SDS011;22228;53.222;7.446;2024-01-11T17:44:37;54.53;;;32.83;;
36185;SDS011;22228;53.222;7.446;2024-01-11T17:47:58;56.47;;;33.17;;
36185;SDS011;22228;53.222;7.446;2024-01-11T17:51:18;47.93;;;30.37;;
36185;SDS011;22228;53.222;7.446;2024-01-11T17:54:39;51.23;;;32.07;;
36185;SDS011;22228;53.222;7.446;2024-01-11T17:58:00;54.10;;;32.97;;
36185;SDS011;22228;53.222;7.446;2024-01-11T18:01:23;56.10;;;34.10;;
36185;SDS011;22228;53.222;7.446;2024-01-11T18:04:44;51.07;;;32.57;;
36185;SDS011;22228;53.222;7.446;2024-01-11T18:08:05;66.73;;;37.03;;
36185;SDS011;22228;53.222;7.446;2024-01-11T18:11:25;62.40;;;39.93;;
36185;SDS011;22228;53.222;7.446;2024-01-11T18:14:46;62.97;;;38.43;;
36185;SDS011;22228;53.222;7.446;2024-01-11T18:18:08;60.70;;;36.03;;
36185;SDS011;22228;53.222;7.446;2024-01-11T18:21:28;59.23;;;34.07;;
36185;SDS011;22228;53.222;7.446;2024-01-11T18:24:49;56.87;;;34.63;;
36185;SDS011;22228;53.222;7.446;2024-01-11T18:28:09;54.47;;;32.60;;
36185;SDS011;22228;53.222;7.446;2024-01-11T18:31:30;53.23;;;32.70;;
36185;SDS011;22228;53.222;7.446;2024-01-11T18:34:51;50.77;;;32.70;;
36185;SDS011;22228;53.222;7.446;2024-01-11T18:38:12;51.03;;;30.73;;
36185;SDS011;22228;53.222;7.446;2024-01-11T18:41:32;48.17;;;29.53;;
36185;SDS011;22228;53.222;7.446;2024-01-11T18:44:53;54.13;;;32.60;;
36185;SDS011;22228;53.222;7.446;2024-01-11T18:48:15;45.40;;;30.50;;
36185;SDS011;22228;53.222;7.446;2024-01-11T18:51:39;54.17;;;32.23;;
36185;SDS011;22228;53.222;7.446;2024-01-11T18:55:00;57.63;;;33.97;;
36185;SDS011;22228;53.222;7.446;2024-01-11T18:58:20;54.60;;;36.20;;
36185;SDS011;22228;53.222;7.446;2024-01-11T19:01:44;60.50;;;37.63;;
36185;SDS011;22228;53.222;7.446;2024-01-11T19:05:06;53.63;;;35.47;;
36185;SDS011;22228;53.222;7.446;2024-01-11T19:08:28;57.03;;;36.27;;
36185;SDS011;22228;53.222;7.446;2024-01-11T19:11:48;51.13;;;34.93;;
36185;SDS011;22228;53.222;7.446;2024-01-11T19:15:10;47.07;;;31.10;;
36185;SDS011;22228;53.222;7.446;2024-01-11T19:18:30;56.73;;;35.60;;
36185;SDS011;22228;53.222;7.446;2024-01-11T19:21:50;56.87;;;36.23;;
36185;SDS011;22228;53.222;7.446;2024-01-11T19:25:12;54.07;;;35.33;;
36185;SDS011;22228;53.222;7.446;2024-01-11T19:28:33;49.43;;;32.80;;
36185;SDS011;22228;53.222;7.446;2024-01-11T19:31:53;49.00;;;33.60;;
36185;SDS011;22228;53.222;7.446;2024-01-11T19:35:14;45.07;;;30.67;;
36185;SDS011;22228;53.222;7.446;2024-01-11T19:38:34;53.10;;;33.93;;
36185;SDS011;22228;53.222;7.446;2024-01-11T19:41:59;52.73;;;33.23;;
36185;SDS011;22228;53.222;7.446;2024-01-11T19:45:19;54.33;;;34.77;;
36185;SDS011;22228;53.222;7.446;2024-01-11T19:48:40;60.00;;;36.97;;
36185;SDS011;22228;53.222;7.446;2024-01-11T19:52:00;51.87;;;35.17;;
36185;SDS011;22228;53.222;7.446;2024-01-11T19:55:21;69.83;;;43.03;;
36185;SDS011;22228;53.222;7.446;2024-01-11T19:58:42;57.97;;;38.03;;
36185;SDS011;22228;53.222;7.446;2024-01-11T20:02:03;57.43;;;37.60;;
36185;SDS011;22228;53.222;7.446;2024-01-11T20:05:24;61.50;;;39.53;;
36185;SDS011;22228;53.222;7.446;2024-01-11T20:08:44;66.47;;;42.37;;
36185;SDS011;22228;53.222;7.446;2024-01-11T20:12:05;61.50;;;39.97;;
36185;SDS011;22228;53.222;7.446;2024-01-11T20:15:27;59.03;;;37.87;;
36185;SDS011;22228;53.222;7.446;2024-01-11T20:18:49;56.40;;;37.23;;
36185;SDS011;22228;53.222;7.446;2024-01-11T20:22:09;58.27;;;37.63;;
36185;SDS011;22228;53.222;7.446;2024-01-11T20:25:30;58.20;;;37.60;;
36185;SDS011;22228;53.222;7.446;2024-01-11T20:28:50;62.73;;;38.83;;
36185;SDS011;22228;53.222;7.446;2024-01-11T20:32:12;69.33;;;41.90;;
36185;SDS011;22228;53.222;7.446;2024-01-11T20:35:33;72.63;;;42.07;;
36185;SDS011;22228;53.222;7.446;2024-01-11T20:38:54;68.10;;;40.97;;
36185;SDS011;22228;53.222;7.446;2024-01-11T20:42:14;67.97;;;39.87;;
36185;SDS011;22228;53.222;7.446;2024-01-11T20:45:35;62.63;;;36.90;;
36185;SDS011;22228;53.222;7.446;2024-01-11T20:48:57;51.63;;;31.63;;
36185;SDS011;22228;53.222;7.446;2024-01-11T20:52:17;54.07;;;31.50;;
36185;SDS011;22228;53.222;7.446;2024-01-11T20:55:38;44.77;;;30.37;;
36185;SDS011;22228;53.222;7.446;2024-01-11T20:58:58;43.13;;;31.10;;
36185;SDS011;22228;53.222;7.446;2024-01-11T21:02:19;42.30;;;29.37;;
36185;SDS011;22228;53.222;7.446;2024-01-11T21:05:41;55.77;;;32.47;;
36185;SDS011;22228;53.222;7.446;2024-01-11T21:09:03;50.53;;;33.07;;
36185;SDS011;22228;53.222;7.446;2024-01-11T21:12:25;45.77;;;30.77;;
36185;SDS011;22228;53.222;7.446;2024-01-11T21:15:45;37.37;;;28.23;;
36185;SDS011;22228;53.222;7.446;2024-01-11T21:19:06;37.23;;;27.57;;
36185;SDS011;22228;53.222;7.446;2024-01-11T21:22:28;39.67;;;27.97;;
36185;SDS011;22228;53.222;7.446;2024-01-11T21:25:48;37.87;;;26.30;;
36185;SDS011;22228;53.222;7.446;2024-01-11T21:29:09;50.23;;;30.83;;
36185;SDS011;22228;53.222;7.446;2024-01-11T21:32:29;49.53;;;32.23;;
36185;SDS011;22228;53.222;7.446;2024-01-11T21:35:50;38.97;;;28.33;;
36185;SDS011;22228;53.222;7.446;2024-01-11T21:39:11;40.80;;;28.93;;
36185;SDS011;22228;53.222;7.446;2024-01-11T21:42:32;52.97;;;32.97;;
36185;SDS011;22228;53.222;7.446;2024-01-11T21:45:53;63.33;;;37.00;;
36185;SDS011;22228;53.222;7.446;2024-01-11T21:49:13;56.07;;;36.40;;
36185;SDS011;22228;53.222;7.446;2024-01-11T21:52:37;55.30;;;34.67;;
36185;SDS011;22228;53.222;7.446;2024-01-11T21:55:58;54.10;;;36.23;;
36185;SDS011;22228;53.222;7.446;2024-01-11T21:59:19;45.13;;;31.17;;
36185;SDS011;22228;53.222;7.446;2024-01-11T22:02:39;51.73;;;34.07;;
36185;SDS011;22228;53.222;7.446;2024-01-11T22:06:00;57.37;;;35.40;;
36185;SDS011;22228;53.222;7.446;2024-01-11T22:09:21;55.20;;;33.73;;
36185;SDS011;22228;53.222;7.446;2024-01-11T22:12:43;45.73;;;31.63;;
36185;SDS011;22228;53.222;7.446;2024-01-11T22:16:04;123.20;;;39.93;;
36185;SDS011;22228;53.222;7.446;2024-01-11T22:19:25;113.93;;;42.27;;
36185;SDS011;22228;53.222;7.446;2024-01-11T22:22:46;61.00;;;35.03;;
36185;SDS011;22228;53.222;7.446;2024-01-11T22:26:06;38.83;;;30.27;;